Time,TemperatureF,DewpointF,PressureIn,WindDirection,WindDirectionDegrees,WindSpeedMPH,WindSpeedGustMPH,Humidity,HourlyPrecipIn,Conditions,Clouds,dailyrainin,SoftwareType,DateUTC
2013-04-21 00:02:00,54.0,-99.9,30.03,South,169,6.0,10.0,-999,-99.99,,,-99.99,,2013-04-21 07:02:00,
2013-04-21 00:12:00,53.0,-99.9,30.03,SSW,199,10.0,13.0,-999,-99.99,,,-99.99,,2013-04-21 07:12:00,
2013-04-21 00:22:00,54.0,-99.9,30.03,SSW,192,7.0,10.0,-999,-99.99,,,-99.99,,2013-04-21 07:22:00,
2013-04-21 00:32:00,55.0,-99.9,30.03,South,190,6.0,9.0,-999,-99.99,,,-99.99,,2013-04-21 07:32:00,
2013-04-21 00:42:00,55.0,-99.9,30.03,South,190,6.0,9.0,-999,-99.99,,,-99.99,,2013-04-21 07:42:00,
2013-04-21 00:52:00,53.0,-99.9,30.03,SSW,202,9.0,12.0,-999,-99.99,,,-99.99,,2013-04-21 07:52:00,
2013-04-21 01:02:00,53.0,-99.9,30.03,South,188,7.0,10.0,-999,-99.99,,,-99.99,,2013-04-21 08:02:00,
2013-04-21 01:12:00,53.0,-99.9,30.03,South,188,7.0,10.0,-999,-99.99,,,-99.99,,2013-04-21 08:12:00,
2013-04-21 01:22:00,54.0,-99.9,30.03,South,183,6.0,8.0,-999,-99.99,,,-99.99,,2013-04-21 08:22:00,
2013-04-21 01:52:00,54.0,-99.9,30.03,SSW,194,5.0,7.0,-999,-99.99,,,-99.99,,2013-04-21 08:52:00,
2013-04-21 02:02:00,54.0,-99.9,30.02,SSW,195,5.0,7.0,-999,-99.99,,,-99.99,,2013-04-21 09:02:00,
2013-04-21 02:12:00,53.0,-99.9,30.02,SSW,208,5.0,7.0,-999,-99.99,,,-99.99,,2013-04-21 09:12:00,
2013-04-21 02:22:00,53.0,-99.9,30.02,SSW,202,5.0,7.0,-999,-99.99,,,-99.99,,2013-04-21 09:22:00,
2013-04-21 02:33:00,54.0,-99.9,30.02,SSW,207,3.0,4.0,-999,-99.99,,,-99.99,,2013-04-21 09:33:00,
2013-04-21 02:53:00,54.0,-99.9,30.01,SW,235,1.0,2.0,-999,-99.99,,,-99.99,,2013-04-21 09:53:00,
2013-04-21 03:03:00,54.0,-99.9,30.01,North,357,0.0,1.0,-999,-99.99,,,-99.99,,2013-04-21 10:03:00,
2013-04-21 03:12:00,54.0,-99.9,30.01,North,354,2.0,2.0,-999,-99.99,,,-99.99,,2013-04-21 10:12:00,
2013-04-21 03:22:00,54.0,-99.9,30.01,NNE,25,2.0,2.0,-999,-99.99,,,-99.99,,2013-04-21 10:22:00,
2013-04-21 03:33:00,54.0,-99.9,30.01,NNE,13,2.0,2.0,-999,-99.99,,,-99.99,,2013-04-21 10:33:00,
2013-04-21 03:42:00,55.0,-99.9,30.01,NNE,24,0.0,3.0,-999,-99.99,,,-99.99,,2013-04-21 10:42:00,
2013-04-21 03:52:00,55.0,-99.9,30.01,NNE,12,2.0,3.0,-999,-99.99,,,-99.99,,2013-04-21 10:52:00,
2013-04-21 04:03:00,55.0,-99.9,30.00,NE,51,0.0,2.0,-999,-99.99,,,-99.99,,2013-04-21 11:03:00,
2013-04-21 04:12:00,55.0,-99.9,30.00,East,92,2.0,2.0,-999,-99.99,,,-99.99,,2013-04-21 11:12:00,
2013-04-21 04:34:00,54.0,-99.9,29.99,ESE,112,1.0,3.0,-999,-99.99,,,-99.99,,2013-04-21 11:34:00,
2013-04-21 04:42:00,54.0,-99.9,29.99,East,92,1.0,3.0,-999,-99.99,,,-99.99,,2013-04-21 11:42:00,
2013-04-21 04:52:00,54.0,-99.9,29.99,ENE,78,2.0,3.0,-999,-99.99,,,-99.99,,2013-04-21 11:52:00,
2013-04-21 05:03:00,55.0,-99.9,29.99,NE,55,2.0,3.0,-999,-99.99,,,-99.99,,2013-04-21 12:03:00,
2013-04-21 05:12:00,55.0,-99.9,29.99,ENE,57,2.0,4.0,-999,-99.99,,,-99.99,,2013-04-21 12:12:00,
2013-04-21 05:22:00,55.0,-99.9,30.00,NE,38,3.0,4.0,-999,-99.99,,,-99.99,,2013-04-21 12:22:00,
2013-04-21 05:32:00,55.0,-99.9,29.99,NNW,348,1.0,3.0,-999,-99.99,,,-99.99,,2013-04-21 12:32:00,
2013-04-21 05:42:00,55.0,-99.9,29.99,NNW,327,2.0,4.0,-999,-99.99,,,-99.99,,2013-04-21 12:42:00,
2013-04-21 05:52:00,55.0,-99.9,29.99,NNW,344,3.0,5.0,-999,-99.99,,,-99.99,,2013-04-21 12:52:00,
2013-04-21 06:02:00,55.0,-99.9,29.99,NNW,342,3.0,4.0,-999,-99.99,,,-99.99,,2013-04-21 13:02:00,
2013-04-21 06:12:00,55.0,-99.9,29.99,NNW,336,3.0,4.0,-999,-99.99,,,-99.99,,2013-04-21 13:12:00,
2013-04-21 06:22:00,55.0,-99.9,29.99,NNW,337,4.0,5.0,-999,-99.99,,,-99.99,,2013-04-21 13:22:00,
2013-04-21 06:32:00,55.0,-99.9,29.99,North,350,7.0,8.0,-999,-99.99,,,-99.99,,2013-04-21 13:32:00,
2013-04-21 06:42:00,55.0,-99.9,30.00,North,359,4.0,5.0,-999,-99.99,,,-99.99,,2013-04-21 13:42:00,
2013-04-21 07:02:00,55.0,-99.9,30.01,NNW,344,6.0,7.0,-999,-99.99,,,-99.99,,2013-04-21 14:02:00,
2013-04-21 07:11:00,55.0,-99.9,30.01,NNW,341,5.0,7.0,-999,-99.99,,,-99.99,,2013-04-21 14:11:00,
2013-04-21 07:22:00,55.0,-99.9,30.01,NNW,344,4.0,6.0,-999,-99.99,,,-99.99,,2013-04-21 14:22:00,
2013-04-21 07:32:00,55.0,-99.9,30.02,NNW,336,5.0,6.0,-999,-99.99,,,-99.99,,2013-04-21 14:32:00,
2013-04-21 07:42:00,55.0,-99.9,30.02,NNW,332,5.0,6.0,-999,-99.99,,,-99.99,,2013-04-21 14:42:00,
2013-04-21 07:52:00,55.0,-99.9,30.02,NNW,328,3.0,4.0,-999,-99.99,,,-99.99,,2013-04-21 14:52:00,
2013-04-21 08:02:00,55.0,-99.9,30.03,NW,326,2.0,3.0,-999,-99.99,,,-99.99,,2013-04-21 15:02:00,
2013-04-21 08:12:00,56.0,-99.9,30.03,NNW,327,2.0,2.0,-999,-99.99,,,-99.99,,2013-04-21 15:12:00,
2013-04-21 08:33:00,57.0,-99.9,30.04,West,263,1.0,2.0,-999,-99.99,,,-99.99,,2013-04-21 15:33:00,
2013-04-21 08:43:00,58.0,-99.9,30.04,SSW,199,-999.0,2.0,-999,-99.99,,,-99.99,,2013-04-21 15:43:00,
2013-04-21 08:53:00,57.0,-99.9,30.04,WSW,256,3.0,3.0,-999,-99.99,,,-99.99,,2013-04-21 15:53:00,
2013-04-21 09:03:00,57.0,-99.9,30.04,West,259,3.0,3.0,-999,-99.99,,,-99.99,,2013-04-21 16:03:00,
2013-04-21 09:13:00,57.0,-99.9,30.04,West,281,2.0,3.0,-999,-99.99,,,-99.99,,2013-04-21 16:13:00,
2013-04-21 09:23:00,56.0,-99.9,30.04,West,262,4.0,5.0,-999,-99.99,,,-99.99,,2013-04-21 16:23:00,
2013-04-21 09:33:00,56.0,-99.9,30.04,WNW,293,3.0,5.0,-999,-99.99,,,-99.99,,2013-04-21 16:33:00,
2013-04-21 09:42:00,56.0,-99.9,30.04,WNW,284,3.0,3.0,-999,-99.99,,,-99.99,,2013-04-21 16:42:00,
2013-04-21 10:02:00,57.0,-99.9,30.04,WSW,249,2.0,3.0,-999,-99.99,,,-99.99,,2013-04-21 17:02:00,
2013-04-21 10:12:00,57.0,-99.9,30.04,WSW,251,2.0,3.0,-999,-99.99,,,-99.99,,2013-04-21 17:12:00,
2013-04-21 10:23:00,57.0,-99.9,30.04,West,261,2.0,3.0,-999,-99.99,,,-99.99,,2013-04-21 17:23:00,
2013-04-21 10:32:00,58.0,-99.9,30.05,WSW,257,2.0,3.0,-999,-99.99,,,-99.99,,2013-04-21 17:32:00,
2013-04-21 10:42:00,58.0,-99.9,30.05,WSW,243,2.0,3.0,-999,-99.99,,,-99.99,,2013-04-21 17:42:00,
2013-04-21 10:52:00,59.0,-99.9,30.05,SW,235,2.0,3.0,-999,-99.99,,,-99.99,,2013-04-21 17:52:00,
2013-04-21 11:02:00,59.0,-99.9,30.05,SSW,202,2.0,4.0,-999,-99.99,,,-99.99,,2013-04-21 18:02:00,
2013-04-21 11:11:00,61.0,-99.9,30.05,SE,142,2.0,3.0,-999,-99.99,,,-99.99,,2013-04-21 18:11:00,
2013-04-21 11:22:00,61.0,-99.9,30.05,SSE,150,2.0,4.0,-999,-99.99,,,-99.99,,2013-04-21 18:22:00,
2013-04-21 11:33:00,61.0,-99.9,30.05,SSE,163,3.0,4.0,-999,-99.99,,,-99.99,,2013-04-21 18:33:00,
2013-04-21 11:42:00,61.0,-99.9,30.05,SSE,163,4.0,6.0,-999,-99.99,,,-99.99,,2013-04-21 18:42:00,
2013-04-21 11:52:00,63.0,-99.9,30.04,SE,141,3.0,6.0,-999,-99.99,,,-99.99,,2013-04-21 18:52:00,
2013-04-21 12:02:00,63.0,-99.9,30.04,SSE,163,3.0,5.0,-999,-99.99,,,-99.99,,2013-04-21 19:02:00,
2013-04-21 12:12:00,62.0,-99.9,30.04,South,171,4.0,4.0,-999,-99.99,,,-99.99,,2013-04-21 19:12:00,
2013-04-21 12:22:00,62.0,-99.9,30.04,SSE,164,5.0,6.0,-999,-99.99,,,-99.99,,2013-04-21 19:22:00,
2013-04-21 12:32:00,63.0,-99.9,30.04,SSE,164,4.0,5.0,-999,-99.99,,,-99.99,,2013-04-21 19:32:00,
2013-04-21 12:43:00,64.0,-99.9,30.03,SE,143,3.0,4.0,-999,-99.99,,,-99.99,,2013-04-21 19:43:00,
2013-04-21 12:52:00,63.0,-99.9,30.03,SSE,158,4.0,6.0,-999,-99.99,,,-99.99,,2013-04-21 19:52:00,
2013-04-21 13:02:00,65.0,-99.9,30.03,SE,137,3.0,5.0,-999,-99.99,,,-99.99,,2013-04-21 20:02:00,
2013-04-21 13:11:00,67.0,-99.9,30.02,SE,135,2.0,4.0,-999,-99.99,,,-99.99,,2013-04-21 20:11:00,
2013-04-21 13:22:00,66.0,-99.9,30.02,SE,142,3.0,6.0,-999,-99.99,,,-99.99,,2013-04-21 20:22:00,
2013-04-21 13:32:00,67.0,-99.9,30.01,SE,137,2.0,5.0,-999,-99.99,,,-99.99,,2013-04-21 20:32:00,
2013-04-21 13:52:00,68.0,-99.9,30.01,SSE,148,3.0,5.0,-999,-99.99,,,-99.99,,2013-04-21 20:52:00,
2013-04-21 14:02:00,67.0,-99.9,30.00,SSE,154,4.0,5.0,-999,-99.99,,,-99.99,,2013-04-21 21:02:00,
2013-04-21 14:33:00,65.0,-99.9,30.00,SSE,163,8.0,10.0,-999,-99.99,,,-99.99,,2013-04-21 21:33:00,
2013-04-21 14:43:00,68.0,-99.9,29.99,SE,130,2.0,6.0,-999,-99.99,,,-99.99,,2013-04-21 21:43:00,
2013-04-21 14:53:00,67.0,-99.9,29.99,South,174,3.0,5.0,-999,-99.99,,,-99.99,,2013-04-21 21:53:00,
2013-04-21 15:03:00,67.0,-99.9,29.99,SE,126,2.0,4.0,-999,-99.99,,,-99.99,,2013-04-21 22:03:00,
2013-04-21 15:12:00,66.0,-99.9,29.99,SE,126,4.0,5.0,-999,-99.99,,,-99.99,,2013-04-21 22:12:00,
2013-04-21 15:22:00,65.0,-99.9,29.98,ESE,122,4.0,5.0,-999,-99.99,,,-99.99,,2013-04-21 22:22:00,
2013-04-21 15:33:00,67.0,-99.9,29.98,SSE,151,5.0,9.0,-999,-99.99,,,-99.99,,2013-04-21 22:33:00,
2013-04-21 15:43:00,66.0,-99.9,29.98,SSE,166,8.0,10.0,-999,-99.99,,,-99.99,,2013-04-21 22:43:00,
2013-04-21 15:53:00,68.0,-99.9,29.98,SE,142,3.0,7.0,-999,-99.99,,,-99.99,,2013-04-21 22:53:00,
2013-04-21 16:02:00,67.0,-99.9,29.97,SSE,163,2.0,6.0,-999,-99.99,,,-99.99,,2013-04-21 23:02:00,
2013-04-21 16:12:00,65.0,-99.9,29.97,SSW,199,7.0,10.0,-999,-99.99,,,-99.99,,2013-04-21 23:12:00,
2013-04-21 16:22:00,65.0,-99.9,29.97,SSW,198,7.0,10.0,-999,-99.99,,,-99.99,,2013-04-21 23:22:00,
2013-04-21 16:32:00,65.0,-99.9,29.97,SSW,197,7.0,10.0,-999,-99.99,,,-99.99,,2013-04-21 23:32:00,
2013-04-21 16:43:00,67.0,-99.9,29.97,SSW,195,8.0,10.0,-999,-99.99,,,-99.99,,2013-04-21 23:43:00,
2013-04-21 16:52:00,67.0,-99.9,29.96,South,183,5.0,10.0,-999,-99.99,,,-99.99,,2013-04-21 23:52:00,
2013-04-21 17:02:00,68.0,-99.9,29.96,SE,132,4.0,8.0,-999,-99.99,,,-99.99,,2013-04-22 00:02:00,
2013-04-21 17:12:00,68.0,-99.9,29.96,SSE,165,8.0,11.0,-999,-99.99,,,-99.99,,2013-04-22 00:12:00,
2013-04-21 17:22:00,66.0,-99.9,29.96,SE,137,3.0,7.0,-999,-99.99,,,-99.99,,2013-04-22 00:22:00,
2013-04-21 17:32:00,64.0,-99.9,29.95,SE,130,5.0,8.0,-999,-99.99,,,-99.99,,2013-04-22 00:32:00,
2013-04-21 17:42:00,65.0,-99.9,29.96,SE,140,3.0,8.0,-999,-99.99,,,-99.99,,2013-04-22 00:42:00,
2013-04-21 18:01:00,64.0,-99.9,29.95,SSE,157,5.0,7.0,-999,-99.99,,,-99.99,,2013-04-22 01:01:00,
2013-04-21 18:12:00,66.0,-99.9,29.94,SSE,147,4.0,6.0,-999,-99.99,,,-99.99,,2013-04-22 01:12:00,
2013-04-21 18:22:00,64.0,-99.9,29.94,SSE,147,4.0,7.0,-999,-99.99,,,-99.99,,2013-04-22 01:22:00,
2013-04-21 18:32:00,65.0,-99.9,29.94,SE,138,3.0,7.0,-999,-99.99,,,-99.99,,2013-04-22 01:32:00,
2013-04-21 18:42:00,65.0,-99.9,29.94,SE,139,2.0,5.0,-999,-99.99,,,-99.99,,2013-04-22 01:42:00,
2013-04-21 19:02:00,63.0,-99.9,29.94,ESE,118,4.0,5.0,-999,-99.99,,,-99.99,,2013-04-22 02:02:00,
2013-04-21 19:12:00,62.0,-99.9,29.94,ESE,119,4.0,6.0,-999,-99.99,,,-99.99,,2013-04-22 02:12:00,
2013-04-21 19:22:00,64.0,-99.9,29.93,SE,140,3.0,5.0,-999,-99.99,,,-99.99,,2013-04-22 02:22:00,
2013-04-21 19:32:00,64.0,-99.9,29.93,SSE,147,4.0,6.0,-999,-99.99,,,-99.99,,2013-04-22 02:32:00,
2013-04-21 19:42:00,63.0,-99.9,29.93,SE,145,5.0,6.0,-999,-99.99,,,-99.99,,2013-04-22 02:42:00,
2013-04-21 19:52:00,63.0,-99.9,29.93,SE,141,4.0,6.0,-999,-99.99,,,-99.99,,2013-04-22 02:52:00,
2013-04-21 20:11:00,62.0,-99.9,29.93,SE,142,4.0,6.0,-999,-99.99,,,-99.99,,2013-04-22 03:11:00,
2013-04-21 20:22:00,61.0,-99.9,29.93,SE,142,3.0,6.0,-999,-99.99,,,-99.99,,2013-04-22 03:22:00,
2013-04-21 20:33:00,62.0,-99.9,29.94,SE,144,3.0,6.0,-999,-99.99,,,-99.99,,2013-04-22 03:33:00,
2013-04-21 20:43:00,62.0,-99.9,29.94,SE,145,3.0,5.0,-999,-99.99,,,-99.99,,2013-04-22 03:43:00,
2013-04-21 20:53:00,61.0,-99.9,29.94,SE,136,2.0,4.0,-999,-99.99,,,-99.99,,2013-04-22 03:53:00,
2013-04-21 21:03:00,61.0,-99.9,29.94,SE,129,2.0,5.0,-999,-99.99,,,-99.99,,2013-04-22 04:03:00,
2013-04-21 21:13:00,61.0,-99.9,29.94,SE,129,2.0,5.0,-999,-99.99,,,-99.99,,2013-04-22 04:13:00,
2013-04-21 21:33:00,61.0,-99.9,29.95,SE,139,3.0,5.0,-999,-99.99,,,-99.99,,2013-04-22 04:33:00,
2013-04-21 21:43:00,61.0,-99.9,29.95,SE,146,3.0,4.0,-999,-99.99,,,-99.99,,2013-04-22 04:43:00,
2013-04-21 21:53:00,60.0,-99.9,29.96,SSE,155,5.0,6.0,-999,-99.99,,,-99.99,,2013-04-22 04:53:00,
2013-04-21 22:03:00,58.0,-99.9,29.96,South,176,7.0,9.0,-999,-99.99,,,-99.99,,2013-04-22 05:03:00,
2013-04-21 22:12:00,58.0,-99.9,29.96,SSE,156,4.0,8.0,-999,-99.99,,,-99.99,,2013-04-22 05:12:00,
2013-04-21 22:23:00,58.0,-99.9,29.96,SE,138,3.0,4.0,-999,-99.99,,,-99.99,,2013-04-22 05:23:00,
2013-04-21 22:33:00,58.0,-99.9,29.97,SSE,155,4.0,6.0,-999,-99.99,,,-99.99,,2013-04-22 05:33:00,
2013-04-21 22:52:00,58.0,-99.9,29.96,SSE,160,3.0,5.0,-999,-99.99,,,-99.99,,2013-04-22 05:52:00,
2013-04-21 23:02:00,58.0,-99.9,29.96,SSE,148,2.0,4.0,-999,-99.99,,,-99.99,,2013-04-22 06:02:00,
2013-04-21 23:12:00,58.0,-99.9,29.96,SSE,159,4.0,5.0,-999,-99.99,,,-99.99,,2013-04-22 06:12:00,
2013-04-21 23:22:00,58.0,-99.9,29.96,SSE,155,3.0,6.0,-999,-99.99,,,-99.99,,2013-04-22 06:22:00,
2013-04-21 23:32:00,57.0,-99.9,29.96,SSE,161,5.0,8.0,-999,-99.99,,,-99.99,,2013-04-22 06:32:00,
2013-04-21 23:42:00,58.0,-99.9,29.96,SSE,148,3.0,6.0,-999,-99.99,,,-99.99,,2013-04-22 06:42:00,
2013-04-21 23:52:00,58.0,-99.9,29.96,SE,129,3.0,4.0,-999,-99.99,,,-99.99,,2013-04-22 06:52:00,